Time;durP1;ratioP1;P1;durP2;ratioP2;P2;SDS_P1;SDS_P2;PMS_P1;PMS_P2;Temp;Humidity;BMP_temperature;BMP_pressure;BME280_temperature;BME280_humidity;BME280_pressure;Samples;Min_cycle;Max_cycle;Signal;HPM_P1;HPM_P2
2022/09/06 00:00:26;;;;;;;1.80;1.07;;;;;;;13.02;47.09;101905.91;1645060;85;22240;-74
2022/09/06 00:03:11;;;;;;;3.02;1.02;;;;;;;13.00;47.13;101906.34;1654106;85;22171;-73
2022/09/06 00:05:56;;;;;;;2.95;0.80;;;;;;;12.98;47.23;101902.06;1658664;85;21066;-73
2022/09/06 00:08:45;;;;;;;1.98;1.00;;;;;;;12.95;47.28;101905.53;1649106;84;21549;-73
2022/09/06 00:11:30;;;;;;;3.08;0.78;;;;;;;12.93;47.39;101900.78;1661498;83;21061;-74
2022/09/06 00:14:15;;;;;;;0.80;0.80;;;;;;;12.88;47.46;101896.05;1663510;84;21121;-74
2022/09/06 00:17:00;;;;;;;0.85;0.72;;;;;;;12.81;47.56;101894.36;1654335;83;21126;-75
2022/09/06 00:19:45;;;;;;;0.98;0.90;;;;;;;12.77;47.64;101895.23;1655449;85;21387;-75
2022/09/06 00:22:30;;;;;;;1.47;0.80;;;;;;;12.75;47.76;101901.73;1650554;84;21106;-75
2022/09/06 00:25:16;;;;;;;1.47;1.20;;;;;;;12.72;47.84;101900.88;1658626;85;21341;-74
2022/09/06 00:28:05;;;;;;;3.47;1.02;;;;;;;12.70;47.91;101901.32;1660929;84;21074;-74
2022/09/06 00:30:49;;;;;;;1.35;0.78;;;;;;;12.68;47.97;101902.62;1647391;85;21077;-74
2022/09/06 00:33:35;;;;;;;2.08;0.90;;;;;;;12.64;48.08;101897.02;1658075;85;21002;-74
2022/09/06 00:36:21;;;;;;;1.32;1.00;;;;;;;12.64;48.15;101901.34;1658997;85;21644;-74
2022/09/06 00:39:06;;;;;;;;;;;;;;;12.62;48.19;101901.78;1659493;85;21078;-74
2022/09/06 00:41:52;;;;;;;2.80;0.85;;;;;;;12.56;48.84;101897.48;1661676;84;20218;-74
2022/09/06 00:44:37;;;;;;;3.90;1.05;;;;;;;12.51;48.35;101897.50;1641360;84;21117;-74
2022/09/06 00:47:22;;;;;;;2.67;0.90;;;;;;;12.49;48.40;101905.72;1659618;86;21129;-75
2022/09/06 00:50:11;;;;;;;1.13;0.90;;;;;;;12.49;48.46;101904.42;1659248;84;21609;-74
2022/09/06 00:52:56;;;;;;;1.65;0.80;;;;;;;12.47;48.50;101895.81;1659915;85;20939;-75
2022/09/06 00:55:42;;;;;;;1.20;0.85;;;;;;;12.45;48.58;101891.06;1640436;84;20982;-75
2022/09/06 00:58:27;;;;;;;6.15;0.90;;;;;;;12.48;48.64;101896.64;1658048;85;20926;-74
2022/09/06 01:01:20;;;;;;;1.80;1.10;;;;;;;12.45;48.72;101897.55;1653746;85;20947;-74
2022/09/06 01:04:05;;;;;;;2.22;1.10;;;;;;;12.43;48.77;101894.53;1660936;84;20988;-74
2022/09/06 01:07:14;;;;;;;1.27;0.90;;;;;;;12.39;48.85;101890.22;1655371;86;20938;-74
2022/09/06 01:10:19;;;;;;;5.70;0.93;;;;;;;12.36;48.92;101882.02;1630730;86;20996;-74
2022/09/06 01:13:33;;;;;;;2.08;1.00;;;;;;;12.31;49.01;101884.19;1659187;86;20939;-74
2022/09/06 01:16:28;;;;;;;1.47;0.88;;;;;;;12.27;49.13;101884.63;1647443;86;20924;-74
2022/09/06 01:19:55;;;;;;;2.15;1.10;;;;;;;12.24;49.18;101880.31;1656884;85;20994;-74
2022/09/06 01:23:03;;;;;;;3.95;0.85;;;;;;;12.21;49.26;101886.80;1622542;85;21605;-74
2022/09/06 01:26:23;;;;;;;1.87;1.25;;;;;;;12.17;49.34;101886.38;1663513;84;21058;-74
2022/09/06 01:29:15;;;;;;;0.95;0.80;;;;;;;12.12;49.40;101879.05;1661720;84;21081;-74
2022/09/06 01:32:11;;;;;;;4.58;1.00;;;;;;;12.10;49.48;101874.73;1620944;84;445409;-74
2022/09/06 01:35:04;;;;;;;1.35;0.90;;;;;;;12.06;49.54;101873.00;1613978;84;21521;-74
2022/09/06 01:37:49;;;;;;;1.67;0.85;;;;;;;12.01;49.66;101874.74;1610217;88;21083;-74
2022/09/06 01:40:35;;;;;;;2.37;0.80;;;;;;;11.98;49.70;101868.27;1619518;84;619443;-73
2022/09/06 01:43:38;;;;;;;1.27;0.85;;;;;;;11.97;49.79;101869.12;1623133;86;21015;-73
2022/09/06 01:46:38;;;;;;;2.67;1.00;;;;;;;11.95;49.85;101872.19;1613266;86;20994;-73
2022/09/06 01:49:48;;;;;;;1.77;0.90;;;;;;;11.90;49.90;101871.77;1626641;86;21552;-73
2022/09/06 01:52:44;;;;;;;1.22;0.88;;;;;;;11.87;49.97;101879.98;1628856;86;21146;-74
2022/09/06 01:56:04;;;;;;;1.82;1.10;;;;;;;11.82;50.06;101865.72;1623919;86;21095;-74
2022/09/06 01:59:25;;;;;;;4.05;0.80;;;;;;;11.75;50.09;101871.74;1625333;86;21094;-74
2022/09/06 02:02:27;;;;;;;2.25;0.80;;;;;;;11.73;50.20;101868.29;1619799;86;21070;-73
2022/09/06 02:05:32;;;;;;;1.50;1.17;;;;;;;11.71;50.23;101865.27;1621502;87;21133;-73
2022/09/06 02:08:28;;;;;;;3.00;1.15;;;;;;;11.67;50.30;101868.30;1623956;86;21634;-74
2022/09/06 02:11:15;;;;;;;0.80;0.80;;;;;;;11.61;50.38;101867.00;1622436;87;21094;-74
2022/09/06 02:14:05;;;;;;;2.00;1.27;;;;;;;11.56;50.40;101870.02;1622183;86;21114;-75
2022/09/06 02:16:52;;;;;;;3.58;1.30;;;;;;;11.53;50.46;101864.41;1624319;85;21635;-74
2022/09/06 02:19:42;;;;;;;1.02;0.95;;;;;;;11.48;50.51;101865.27;1618221;87;21055;-74
2022/09/06 02:22:32;;;;;;;3.40;1.30;;;;;;;11.43;50.57;101860.12;1615278;87;21080;-74
2022/09/06 02:25:40;;;;;;;1.75;0.70;;;;;;;11.38;50.64;101864.43;1617626;86;21598;-74
2022/09/06 02:28:26;;;;;;;1.50;0.88;;;;;;;11.32;50.68;101867.44;1623968;86;21542;-75
2022/09/06 02:31:22;;;;;;;1.57;1.00;;;;;;;11.24;50.77;101858.38;1630071;86;21110;-75
2022/09/06 02:34:09;;;;;;;2.47;1.00;;;;;;;11.18;50.85;101857.93;1628241;86;21586;-74
2022/09/06 02:36:54;;;;;;;3.83;1.00;;;;;;;11.16;50.95;101854.48;1623729;86;22014;-74
2022/09/06 02:39:39;;;;;;;2.92;1.32;;;;;;;11.14;50.97;101854.04;1624434;85;20963;-74
2022/09/06 02:42:25;;;;;;;1.22;1.10;;;;;;;11.12;51.02;101865.69;1633082;86;20991;-74
2022/09/06 02:45:10;;;;;;;2.72;1.37;;;;;;;11.08;51.11;101864.38;1618313;87;20995;-74
2022/09/06 02:47:55;;;;;;;1.30;0.88;;;;;;;11.03;51.19;101866.95;1629497;86;21458;-74
2022/09/06 02:50:40;;;;;;;2.10;1.20;;;;;;;11.03;51.25;101859.63;1630170;86;20962;-74
2022/09/06 02:53:25;;;;;;;4.67;1.37;;;;;;;11.03;51.33;101857.03;1622856;86;20974;-74
2022/09/06 02:56:11;;;;;;;1.80;1.17;;;;;;;11.04;51.36;101863.94;1622941;86;20955;-74
2022/09/06 02:58:55;;;;;;;2.65;1.25;;;;;;;11.02;51.43;101862.64;1636994;85;21485;-75
2022/09/06 03:01:41;;;;;;;2.25;1.30;;;;;;;11.01;51.50;101857.03;1618624;87;21148;-73
2022/09/06 03:04:26;;;;;;;1.97;1.40;;;;;;;11.00;51.60;101857.03;1631722;86;21567;-75
2022/09/06 03:07:11;;;;;;;2.12;1.25;;;;;;;10.96;51.63;101860.04;1628924;86;21118;-75
2022/09/06 03:09:57;;;;;;;3.30;1.67;;;;;;;10.92;51.74;101853.13;1616625;86;21096;-75
2022/09/06 03:12:45;;;;;;;1.75;1.45;;;;;;;10.88;51.80;101848.84;1621568;86;21510;-74
2022/09/06 03:15:30;;;;;;;1.82;1.50;;;;;;;10.88;51.91;101850.13;1624185;86;21664;-75
2022/09/06 03:18:15;;;;;;;2.20;1.32;;;;;;;10.88;51.98;101851.00;1621439;87;21117;-74
2022/09/06 03:21:01;;;;;;;3.60;1.40;;;;;;;10.86;52.02;101845.38;1631079;86;21626;-74
2022/09/06 03:23:46;;;;;;;2.58;1.65;;;;;;;10.84;52.11;101841.50;1605011;86;21544;-74
2022/09/06 03:26:32;;;;;;;3.60;1.40;;;;;;;10.86;52.14;101849.27;1625297;86;21074;-74
2022/09/06 03:29:17;;;;;;;2.02;1.30;;;;;;;10.83;52.19;101846.67;1625134;86;21379;-74
2022/09/06 03:32:02;;;;;;;3.42;1.40;;;;;;;10.81;52.25;101835.02;1622945;87;21584;-75
2022/09/06 03:34:47;;;;;;;2.25;1.55;;;;;;;10.79;52.32;101834.58;1626888;86;21066;-75
2022/09/06 03:37:32;;;;;;;2.58;1.47;;;;;;;10.77;52.41;101836.30;1623514;86;21067;-74
2022/09/06 03:40:17;;;;;;;1.95;1.25;;;;;;;10.77;52.45;101836.30;1609387;85;21589;-75
2022/09/06 03:43:02;;;;;;;3.40;1.42;;;;;;;10.77;52.48;101835.00;1631274;86;21633;-74
2022/09/06 03:45:50;;;;;;;2.27;1.42;;;;;;;10.77;52.60;101825.95;1614526;86;22188;-75
2022/09/06 03:48:35;;;;;;;3.60;1.40;;;;;;;10.76;52.64;101820.34;1609300;87;21031;-74
2022/09/06 03:51:20;;;;;;;3.47;1.65;;;;;;;10.75;52.66;101818.62;1628478;86;21625;-75
2022/09/06 03:54:05;;;;;;;4.42;1.70;;;;;;;10.72;52.71;101815.59;1614490;86;21530;-75
2022/09/06 03:56:51;;;;;;;4.28;1.90;;;;;;;10.69;52.79;101814.72;1618454;86;21122;-75
2022/09/06 03:59:36;;;;;;;5.03;2.00;;;;;;;10.64;52.87;101819.87;1628646;86;21062;-75
2022/09/06 04:02:21;;;;;;;3.70;1.77;;;;;;;10.56;52.94;101817.27;1628944;86;21045;-74
2022/09/06 04:05:08;;;;;;;5.15;1.85;;;;;;;10.57;53.04;101818.99;1628056;86;21062;-75
2022/09/06 04:07:53;;;;;;;2.17;1.95;;;;;;;10.58;53.06;101815.98;1622919;84;27293;-75
2022/09/06 04:10:38;;;;;;;2.40;1.52;;;;;;;10.54;53.10;101818.98;1630066;86;20983;-75
2022/09/06 04:13:24;;;;;;;4.15;1.82;;;;;;;10.53;53.19;101826.30;1633662;86;22006;-75
2022/09/06 04:16:10;;;;;;;3.58;1.80;;;;;;;10.50;53.29;101831.47;1624031;87;38065;-74
2022/09/06 04:18:55;;;;;;;3.95;1.65;;;;;;;10.51;53.36;101833.20;1625243;86;20908;-73
2022/09/06 04:21:40;;;;;;;2.62;1.95;;;;;;;10.54;53.39;101831.05;1632600;86;20974;-73
2022/09/06 04:24:25;;;;;;;3.67;1.90;;;;;;;10.55;53.46;101840.10;1619376;86;20950;-73
2022/09/06 04:27:09;;;;;;;3.45;1.95;;;;;;;10.55;53.49;101831.48;1626731;86;20990;-73
2022/09/06 04:29:55;;;;;;;4.25;2.15;;;;;;;10.56;53.56;101833.21;1638034;85;21493;-73
2022/09/06 04:32:40;;;;;;;8.38;1.95;;;;;;;10.59;53.63;101833.22;1631293;85;20935;-73
2022/09/06 04:35:25;;;;;;;4.47;1.70;;;;;;;10.57;53.68;101835.80;1642095;85;20950;-73
2022/09/06 04:38:10;;;;;;;2.25;1.82;;;;;;;10.56;53.72;101837.09;1637207;86;20971;-74
2022/09/06 04:40:55;;;;;;;8.33;2.00;;;;;;;10.56;53.80;101837.95;1643873;84;20985;-73
2022/09/06 04:43:39;;;;;;;6.17;2.22;;;;;;;10.56;53.84;101848.30;1646617;85;20998;-75
2022/09/06 04:46:27;;;;;;;3.27;2.02;;;;;;;10.58;53.90;101854.34;1639952;85;22031;-73
2022/09/06 04:49:12;;;;;;;3.10;1.72;;;;;;;10.58;53.97;101853.05;1639426;86;20990;-74
2022/09/06 04:51:57;;;;;;;6.20;1.80;;;;;;;10.59;54.04;101845.72;1645405;85;21400;-76
2022/09/06 04:54:42;;;;;;;2.37;1.85;;;;;;;10.59;54.07;101848.31;1640422;86;20971;-73
2022/09/06 04:57:27;;;;;;;3.87;2.00;;;;;;;10.59;54.07;101843.14;1637753;86;21470;-73
2022/09/06 05:00:13;;;;;;;2.60;1.95;;;;;;;10.60;54.18;101844.00;1641753;85;20943;-74
2022/09/06 05:03:00;;;;;;;4.90;1.82;;;;;;;10.63;54.23;101839.27;1637866;85;21400;-74
2022/09/06 05:05:46;;;;;;;6.28;2.60;;;;;;;10.66;54.26;101837.56;1627698;85;20943;-74
2022/09/06 05:08:31;;;;;;;7.53;2.40;;;;;;;10.67;54.31;101841.01;1625805;86;21962;-75
2022/09/06 05:11:16;;;;;;;4.37;2.00;;;;;;;10.70;54.40;101831.97;1638159;86;20955;-75
2022/09/06 05:14:01;;;;;;;4.00;2.40;;;;;;;10.76;54.50;101834.57;1626053;86;21432;-75
2022/09/06 05:16:46;;;;;;;5.83;2.02;;;;;;;10.88;54.49;101841.08;1640438;86;22007;-75
2022/09/06 05:19:31;;;;;;;4.35;2.15;;;;;;;10.95;54.50;101841.06;1640121;86;20966;-75
2022/09/06 05:22:15;;;;;;;5.80;2.17;;;;;;;11.04;54.61;101840.22;1638944;85;20946;-75
2022/09/06 05:25:01;;;;;;;6.87;2.40;;;;;;;11.19;54.61;101836.36;1640919;86;20947;-75
2022/09/06 05:27:45;;;;;;;3.00;2.20;;;;;;;11.28;54.66;101836.37;1625760;85;21426;-75
2022/09/06 05:30:30;;;;;;;9.48;3.20;;;;;;;11.32;54.73;101832.05;1643934;86;21606;-74
2022/09/06 05:33:21;;;;;;;15.53;2.65;;;;;;;11.37;54.81;101838.53;1637947;85;21435;-74
2022/09/06 05:36:07;;;;;;;7.33;2.55;;;;;;;11.50;54.90;101833.75;1626381;86;21089;-74
2022/09/06 05:38:54;;;;;;;3.30;2.12;;;;;;;11.59;54.89;101831.16;1642264;85;21082;-74
2022/09/06 05:41:39;;;;;;;7.37;3.05;;;;;;;11.66;54.89;101838.06;1638796;85;21102;-74
2022/09/06 05:44:27;;;;;;;6.60;2.17;;;;;;;11.74;54.93;101827.26;1641092;85;21196;-75
2022/09/06 05:47:12;;;;;;;2.83;2.22;;;;;;;11.80;54.97;101831.61;1632076;85;21062;-74
2022/09/06 05:49:58;;;;;;;8.00;2.33;;;;;;;11.87;55.08;101830.73;1631084;85;21570;-75
2022/09/06 05:52:43;;;;;;;;;;;;;;;12.06;55.14;101830.23;1638442;86;21139;-74
2022/09/06 05:55:29;;;;;;;8.98;2.47;;;;;;;12.27;55.32;101830.16;1632694;85;20141;-74
2022/09/06 05:58:14;;;;;;;3.23;2.30;;;;;;;12.41;55.09;101824.93;1641304;86;21106;-74
2022/09/06 06:01:23;;;;;;;3.27;2.40;;;;;;;12.52;55.10;101820.09;1638230;85;22013;-74
2022/09/06 06:04:08;;;;;;;2.70;2.45;;;;;;;12.73;55.21;101817.83;1640430;85;21132;-75
2022/09/06 06:06:53;;;;;;;5.53;2.55;;;;;;;13.20;55.32;101811.03;1638008;86;21118;-74
2022/09/06 06:09:38;;;;;;;4.12;2.00;;;;;;;13.69;55.35;101809.28;1639025;85;21128;-74
2022/09/06 06:12:23;;;;;;;7.37;2.47;;;;;;;14.33;55.39;101810.29;1642438;85;21922;-74
2022/09/06 06:15:10;;;;;;;4.25;2.40;;;;;;;14.99;55.37;101815.03;1635256;85;21073;-74
2022/09/06 06:17:54;;;;;;;4.67;1.98;;;;;;;15.53;55.35;101812.39;1649498;85;21105;-74
2022/09/06 06:20:39;;;;;;;2.90;2.10;;;;;;;16.22;55.29;101806.73;1639760;85;21059;-74
2022/09/06 06:23:24;;;;;;;3.22;2.67;;;;;;;16.87;55.04;101809.68;1637775;85;21140;-74
2022/09/06 06:26:11;;;;;;;7.58;2.17;;;;;;;17.48;55.00;101814.72;1635501;85;21118;-74
2022/09/06 06:28:57;;;;;;;6.03;2.50;;;;;;;18.10;54.76;101812.19;1625061;87;21404;-75
2022/09/06 06:31:42;;;;;;;3.75;2.02;;;;;;;18.83;54.53;101803.44;1626573;86;21067;-75
2022/09/06 06:34:27;;;;;;;4.35;2.30;;;;;;;19.53;54.18;101805.08;1633061;86;21093;-75
2022/09/06 06:37:12;;;;;;;2.40;1.85;;;;;;;20.10;53.95;101803.45;1632648;86;21098;-75
2022/09/06 06:39:57;;;;;;;14.13;2.62;;;;;;;20.61;53.66;101806.81;1627667;86;21147;-75
2022/09/06 06:42:42;;;;;;;4.28;1.87;;;;;;;21.13;53.45;101806.43;1630309;85;21063;-75
2022/09/06 06:45:27;;;;;;;7.03;2.33;;;;;;;21.63;53.16;101806.09;1632009;86;21002;-75
2022/09/06 06:48:13;;;;;;;2.33;1.87;;;;;;;22.06;53.01;101797.62;1630171;86;20995;-75
2022/09/06 06:50:58;;;;;;;6.15;2.17;;;;;;;22.59;52.64;101803.50;1630538;86;21055;-75
2022/09/06 06:53:48;;;;;;;3.27;1.92;;;;;;;23.14;52.31;101797.74;1627203;86;21680;-75
2022/09/06 06:56:44;;;;;;;5.28;2.33;;;;;;;23.74;51.87;101798.20;1632402;86;21371;-74
2022/09/06 06:59:29;;;;;;;4.92;2.20;;;;;;;23.98;51.56;101799.99;1630364;87;21074;-74
2022/09/06 07:02:16;;;;;;;7.10;1.97;;;;;;;24.43;51.48;101791.41;1624712;85;21114;-74
2022/09/06 07:05:01;;;;;;;7.92;1.85;;;;;;;24.79;50.97;101797.72;1631594;86;21110;-74
2022/09/06 07:07:46;;;;;;;5.20;2.50;;;;;;;25.40;50.99;101790.21;1625748;86;21111;-74
2022/09/06 07:10:32;;;;;;;4.55;2.30;;;;;;;26.05;50.59;101799.44;1631554;86;21156;-75
2022/09/06 07:13:17;;;;;;;4.77;2.40;;;;;;;26.67;50.25;101794.61;1634691;86;20984;-75
2022/09/06 07:16:21;;;;;;;7.25;2.60;;;;;;;27.00;49.78;101797.38;1634278;86;20951;-75
2022/09/06 07:19:06;;;;;;;4.97;2.15;;;;;;;27.24;49.03;101798.84;1632943;86;20942;-75
2022/09/06 07:21:51;;;;;;;2.35;2.15;;;;;;;27.51;48.39;101802.30;1631537;86;20932;-75
2022/09/06 07:24:36;;;;;;;5.47;2.10;;;;;;;27.99;47.68;101799.85;1632298;86;21673;-75
2022/09/06 07:27:21;;;;;;;4.20;2.10;;;;;;;28.38;46.99;101804.63;1626743;84;21542;-75
2022/09/06 07:30:09;;;;;;;2.42;2.20;;;;;;;28.47;46.82;101811.95;1633019;84;21117;-75
2022/09/06 07:32:54;;;;;;;4.58;2.30;;;;;;;28.33;46.07;101806.30;1639396;85;21612;-75
2022/09/06 07:35:39;;;;;;;4.45;2.10;;;;;;;28.28;45.66;101811.09;1641166;85;21156;-75
2022/09/06 07:38:24;;;;;;;8.30;1.90;;;;;;;28.48;44.73;101813.17;1641144;86;21090;-75
2022/09/06 07:41:10;;;;;;;2.47;2.17;;;;;;;28.74;44.03;101808.59;1643168;85;21141;-75
2022/09/06 07:43:55;;;;;;;7.47;2.50;;;;;;;28.74;44.00;101813.91;1630415;86;21043;-75
2022/09/06 07:46:40;;;;;;;2.72;1.90;;;;;;;28.71;43.17;101822.12;1639830;86;20999;-75
2022/09/06 07:49:25;;;;;;;6.08;2.40;;;;;;;28.14;43.24;101819.17;1638342;86;21578;-75
2022/09/06 07:52:10;;;;;;;5.30;2.22;;;;;;;28.21;42.66;101818.66;1636768;86;21074;-75
2022/09/06 07:54:55;;;;;;;4.50;2.10;;;;;;;27.68;41.96;101815.27;1639841;85;21125;-75
2022/09/06 07:57:40;;;;;;;2.80;1.92;;;;;;;27.31;42.17;101817.40;1632481;86;21505;-75
2022/09/06 08:00:26;;;;;;;5.28;1.98;;;;;;;28.41;41.33;101809.25;1639239;85;21098;-75
2022/09/06 08:03:10;;;;;;;3.87;2.17;;;;;;;29.76;40.17;101810.15;1640495;86;21080;-74
2022/09/06 08:05:56;;;;;;;4.30;2.12;;;;;;;30.72;39.53;101809.59;1641063;86;21512;-75
2022/09/06 08:08:41;;;;;;;2.40;2.20;;;;;;;31.67;38.87;101798.45;1637923;85;21118;-75
2022/09/06 08:11:31;;;;;;;8.08;1.98;;;;;;;32.76;38.25;101800.70;1634993;86;21078;-75
2022/09/06 08:14:16;;;;;;;6.67;1.87;;;;;;;33.67;37.88;101798.01;1640297;86;21153;-75
2022/09/06 08:17:03;;;;;;;9.38;2.58;;;;;;;34.46;37.50;101794.81;1640573;85;21155;-75
2022/09/06 08:19:48;;;;;;;;;;;;;;;35.23;36.92;101791.50;1641298;84;20951;-75
2022/09/06 08:22:32;;;;;;;4.23;1.93;;;;;;;35.76;37.54;101794.53;1642396;86;20129;-75
2022/09/06 08:25:18;;;;;;;55.33;5.33;;;;;;;36.07;36.41;101789.47;1628350;85;21475;-75
2022/09/06 08:28:02;;;;;;;3.77;2.87;;;;;;;36.43;35.97;101787.39;1635036;85;20972;-75
2022/09/06 08:30:47;;;;;;;4.08;2.47;;;;;;;36.55;35.17;101780.69;1634821;85;20927;-75
2022/09/06 08:33:32;;;;;;;11.57;2.73;;;;;;;36.61;34.43;101782.72;1629328;86;21427;-75
2022/09/06 08:36:17;;;;;;;2.83;2.25;;;;;;;36.59;34.40;101744.81;1643427;85;21463;-75
2022/09/06 08:39:05;;;;;;;2.60;1.75;;;;;;;36.40;33.44;101772.40;1643285;85;21415;-76
2022/09/06 08:42:04;;;;;;;4.17;2.20;;;;;;;33.79;34.15;101765.13;1643212;86;20966;-76
2022/09/06 08:44:52;;;;;;;3.70;1.87;;;;;;;31.93;34.50;101764.44;1632973;85;20946;-75
2022/09/06 08:47:38;;;;;;;2.35;1.60;;;;;;;30.23;34.38;101760.20;1642500;86;21420;-75
2022/09/06 08:50:26;;;;;;;5.30;2.00;;;;;;;29.09;34.25;101755.87;1629980;85;20967;-75
2022/09/06 08:53:18;;;;;;;5.50;2.02;;;;;;;28.17;33.93;101755.97;1642391;85;20975;-75
2022/09/06 08:56:14;;;;;;;2.02;1.35;;;;;;;27.27;33.74;101758.31;1642298;85;20970;-75
2022/09/06 08:59:06;;;;;;;2.62;1.70;;;;;;;26.40;33.56;101753.12;1641101;85;21458;-75
2022/09/06 09:01:58;;;;;;;7.45;2.12;;;;;;;25.64;33.35;101757.42;1642721;85;20971;-74
2022/09/06 09:04:51;;;;;;;3.37;1.50;;;;;;;24.75;33.00;101751.22;1623525;87;21580;-74
2022/09/06 09:07:59;;;;;;;7.35;1.72;;;;;;;24.14;33.13;101741.42;1651025;85;20974;-74
2022/09/06 09:10:51;;;;;;;2.90;1.35;;;;;;;23.63;33.05;101747.73;1642397;85;21541;-75
2022/09/06 09:14:07;;;;;;;3.05;1.30;;;;;;;23.26;33.11;101750.09;1638198;85;21568;-75
2022/09/06 09:16:55;;;;;;;2.62;1.92;;;;;;;22.90;33.00;101739.59;1644068;86;20993;-76
2022/09/06 09:19:41;;;;;;;5.12;2.35;;;;;;;22.45;33.14;101736.93;1655601;85;20973;-76
2022/09/06 09:22:27;;;;;;;2.33;1.45;;;;;;;22.20;33.25;101741.67;1635122;86;20951;-76
2022/09/06 09:25:22;;;;;;;3.20;1.30;;;;;;;21.93;33.26;101726.17;1642465;86;21525;-76
2022/09/06 09:28:14;;;;;;;3.72;1.35;;;;;;;21.74;33.35;101724.86;1637932;85;20985;-76
2022/09/06 09:30:59;;;;;;;4.85;1.10;;;;;;;21.68;33.44;101723.82;1639952;86;21586;-76
2022/09/06 09:33:44;;;;;;;3.08;1.32;;;;;;;21.58;33.54;101717.25;1634924;87;20939;-76
2022/09/06 09:36:29;;;;;;;11.20;1.22;;;;;;;21.42;33.54;101707.00;1651436;85;20943;-76
2022/09/06 09:39:14;;;;;;;3.00;1.77;;;;;;;21.36;33.59;101704.64;1641074;85;21577;-76
2022/09/06 09:41:58;;;;;;;2.75;0.90;;;;;;;21.30;33.69;101704.47;1640053;85;20963;-76
2022/09/06 09:44:44;;;;;;;6.08;1.20;;;;;;;21.23;33.73;101704.34;1643027;86;20985;-76
2022/09/06 09:47:32;;;;;;;2.45;1.20;;;;;;;21.17;33.99;101705.03;1645070;84;20970;-76
2022/09/06 09:50:34;;;;;;;5.87;0.93;;;;;;;21.09;33.95;101703.58;1639069;85;20947;-76
2022/09/06 09:53:22;;;;;;;7.03;1.10;;;;;;;20.99;34.22;101699.62;1627536;87;20963;-76
2022/09/06 09:56:07;;;;;;;1.75;1.00;;;;;;;20.86;34.14;101694.94;1642440;85;21546;-76
2022/09/06 09:58:55;;;;;;;2.25;0.65;;;;;;;20.85;34.24;101698.03;1643233;85;20935;-76
2022/09/06 10:01:40;;;;;;;3.27;0.82;;;;;;;20.88;34.33;101688.70;1643834;84;20994;-74
2022/09/06 10:04:40;;;;;;;1.72;0.95;;;;;;;20.97;34.44;101680.89;1637780;85;20929;-75
2022/09/06 10:07:25;;;;;;;4.10;0.93;;;;;;;21.06;34.60;101677.41;1643132;85;20934;-75
2022/09/06 10:10:26;;;;;;;4.30;1.10;;;;;;;21.04;34.53;101683.20;1625409;86;20978;-76
2022/09/06 10:13:23;;;;;;;3.75;1.20;;;;;;;21.03;34.66;101681.48;1641897;86;20959;-76
2022/09/06 10:16:07;;;;;;;6.20;1.10;;;;;;;21.05;34.72;101673.53;1641009;86;21565;-76
2022/09/06 10:18:51;;;;;;;2.80;0.82;;;;;;;21.10;34.81;101676.82;1638517;86;27540;-76
2022/09/06 10:21:37;;;;;;;8.95;1.00;;;;;;;21.12;34.88;101671.03;1640751;86;21454;-76
2022/09/06 10:24:39;;;;;;;3.40;1.25;;;;;;;21.10;34.89;101676.36;1640555;86;21123;-75
2022/09/06 10:27:27;;;;;;;1.42;1.05;;;;;;;21.06;34.93;101672.15;1634622;86;21514;-75
2022/09/06 10:30:13;;;;;;;1.05;0.70;;;;;;;21.01;35.03;101679.38;1638433;86;21043;-76
2022/09/06 10:33:18;;;;;;;0.78;0.78;;;;;;;20.96;34.99;101677.41;1627800;86;21102;-76
2022/09/06 10:36:04;;;;;;;4.85;1.40;;;;;;;20.89;35.14;101676.41;1628409;86;21439;-76
2022/09/06 10:39:00;;;;;;;1.30;0.95;;;;;;;20.89;35.21;101670.69;1614919;86;21104;-75
2022/09/06 10:42:11;;;;;;;2.90;0.60;;;;;;;20.95;35.28;101657.28;1631156;86;21534;-75
2022/09/06 10:45:21;;;;;;;3.98;0.80;;;;;;;21.05;35.28;101655.97;1566570;90;21154;-75
2022/09/06 10:48:24;;;;;;;1.10;0.80;;;;;;;21.06;35.40;101653.73;1629725;86;21043;-75
2022/09/06 10:51:39;;;;;;;0.53;0.53;;;;;;;21.07;35.24;101654.13;1603066;87;21080;-75
2022/09/06 10:54:24;;;;;;;1.52;0.78;;;;;;;20.99;35.36;101646.17;1614553;86;21074;-76
2022/09/06 10:57:26;;;;;;;1.90;0.90;;;;;;;21.04;35.42;101637.63;1636697;86;21139;-76
2022/09/06 11:00:15;;;;;;;0.95;0.70;;;;;;;21.08;35.41;101650.58;1629304;86;21109;-76
2022/09/06 11:03:32;;;;;;;0.75;0.62;;;;;;;21.15;35.48;101644.59;1621893;86;21062;-76
2022/09/06 11:06:19;;;;;;;1.98;0.82;;;;;;;21.19;35.46;101626.91;1627028;86;21421;-76
2022/09/06 11:09:12;;;;;;;0.93;0.57;;;;;;;21.25;35.57;101626.67;1629705;86;21118;-76
2022/09/06 11:12:11;;;;;;;2.17;0.62;;;;;;;21.31;35.62;101629.03;1627225;86;21071;-76
2022/09/06 11:14:56;;;;;;;1.80;0.70;;;;;;;21.45;35.62;101631.87;1629101;86;21101;-76
2022/09/06 11:18:05;;;;;;;1.20;1.02;;;;;;;21.58;35.68;101618.55;1606557;87;21623;-76
2022/09/06 11:21:33;;;;;;;7.08;0.68;;;;;;;21.63;35.52;101616.56;1628904;85;21545;-76
2022/09/06 11:24:29;;;;;;;1.30;0.60;;;;;;;21.67;35.54;101626.48;1622208;85;21001;-76
2022/09/06 11:27:34;;;;;;;0.78;0.50;;;;;;;21.68;35.68;101612.39;1623407;86;21149;-76
2022/09/06 11:30:21;;;;;;;2.37;0.80;;;;;;;21.71;35.57;101614.89;1614420;86;21498;-76
2022/09/06 11:33:28;;;;;;;1.40;0.70;;;;;;;21.74;35.62;101610.80;1638925;86;21400;-76
2022/09/06 11:36:56;;;;;;;0.75;0.62;;;;;;;21.76;35.61;101608.48;1640793;85;21467;-76
2022/09/06 11:39:42;;;;;;;3.37;0.70;;;;;;;21.79;35.59;101608.34;1636686;86;21423;-76
2022/09/06 11:42:47;;;;;;;;;;;;;;;21.77;35.53;101605.39;1643340;85;21657;-75
2022/09/06 11:45:51;;;;;;;2.02;0.70;;;;;;;21.78;35.52;101600.05;1637956;86;20567;-75
2022/09/06 11:49:05;;;;;;;3.47;0.80;;;;;;;21.85;35.58;101596.64;1637517;85;21054;-76
2022/09/06 11:51:50;;;;;;;2.72;0.80;;;;;;;21.90;35.62;101588.05;1640027;86;22229;-76
2022/09/06 11:54:42;;;;;;;0.95;0.68;;;;;;;22.00;35.56;101577.94;1633901;86;21549;-76
2022/09/06 11:57:27;;;;;;;2.27;0.80;;;;;;;22.06;35.61;101586.89;1641505;85;21046;-76
2022/09/06 12:00:23;;;;;;;2.47;0.68;;;;;;;22.12;35.53;101580.02;1631225;85;21436;-76
2022/09/06 12:03:10;;;;;;;2.33;0.78;;;;;;;22.13;35.56;101572.03;1639662;85;21096;-76
2022/09/06 12:06:19;;;;;;;2.00;0.60;;;;;;;22.14;35.53;101564.98;1630281;86;21624;-76
2022/09/06 12:09:30;;;;;;;9.40;0.62;;;;;;;22.11;35.50;101559.86;1641637;86;21934;-76
2022/09/06 12:12:38;;;;;;;2.45;0.53;;;;;;;22.10;35.55;101554.20;1575099;88;21107;-76
2022/09/06 12:15:28;;;;;;;4.60;0.78;;;;;;;22.11;35.51;101559.40;1632106;86;21054;-76
2022/09/06 12:18:44;;;;;;;2.12;0.72;;;;;;;22.08;35.45;101558.70;1629620;86;21062;-76
2022/09/06 12:21:38;;;;;;;1.25;0.50;;;;;;;22.05;35.49;101563.65;1632366;86;21114;-75
2022/09/06 12:24:46;;;;;;;2.47;0.57;;;;;;;21.94;35.42;101562.42;1633545;86;21080;-75
2022/09/06 12:27:36;;;;;;;0.55;0.45;;;;;;;21.92;35.45;101549.80;1641708;85;21129;-75
2022/09/06 12:30:40;;;;;;;1.70;0.88;;;;;;;21.96;35.50;101553.98;1629965;86;21013;-75
2022/09/06 12:33:35;;;;;;;2.95;0.82;;;;;;;22.02;35.44;101556.36;1641234;85;21134;-75
2022/09/06 12:36:29;;;;;;;6.00;0.68;;;;;;;22.02;35.33;101551.09;1641747;85;21055;-75
2022/09/06 12:39:12;;;;;;;2.95;0.65;;;;;;;22.03;35.34;101543.11;1624794;86;21102;-75
2022/09/06 12:42:04;;;;;;;2.52;0.80;;;;;;;22.04;35.37;101552.72;1635297;85;21046;-75
2022/09/06 12:44:53;;;;;;;1.37;0.75;;;;;;;22.04;35.06;101547.92;1624041;87;21010;-75
2022/09/06 12:47:39;;;;;;;0.90;0.65;;;;;;;22.02;35.27;101542.73;1638918;86;21105;-75
2022/09/06 12:50:28;;;;;;;2.97;0.67;;;;;;;21.96;35.17;101526.34;1636172;86;21413;-75
2022/09/06 12:53:24;;;;;;;6.78;0.75;;;;;;;21.95;35.15;101525.48;1633678;84;21805;-75
2022/09/06 12:56:11;;;;;;;1.90;0.70;;;;;;;21.91;35.13;101523.92;1634894;86;21094;-75
2022/09/06 12:59:16;;;;;;;1.65;0.68;;;;;;;21.87;35.15;101519.73;1629177;86;21085;-75
2022/09/06 13:02:09;;;;;;;2.98;0.50;;;;;;;21.89;35.14;101513.08;1640525;85;21094;-74
2022/09/06 13:05:00;;;;;;;2.52;0.53;;;;;;;21.91;35.13;101505.49;1634286;85;21558;-76
2022/09/06 13:07:49;;;;;;;2.47;0.90;;;;;;;21.91;35.11;101504.17;1632676;86;21570;-76
2022/09/06 13:10:37;;;;;;;3.60;0.75;;;;;;;21.94;35.08;101499.22;1619275;86;21109;-76
2022/09/06 13:13:24;;;;;;;3.80;0.90;;;;;;;21.90;35.06;101499.84;1641391;85;21125;-76